sensor_id;sensor_type;location;lat;lon;timestamp;pressure;altitude;pressure_sealevel;temperature;humidity
64115;BME280;62188;35.640;139.748;2023-02-15T00:00:19;101819.55;;;6.80;17.34
64115;BME280;62188;35.640;139.748;2023-02-15T00:02:44;101821.03;;;6.59;17.34
64115;BME280;62188;35.640;139.748;2023-02-15T00:05:11;101838.76;;;6.39;17.66
64115;BME280;62188;35.640;139.748;2023-02-15T00:07:36;101832.14;;;6.57;17.66
64115;BME280;62188;35.640;139.748;2023-02-15T00:10:00;101839.95;;;6.79;17.92
64115;BME280;62188;35.640;139.748;2023-02-15T00:12:25;101837.30;;;6.76;17.81
64115;BME280;62188;35.640;139.748;2023-02-15T00:14:50;101836.30;;;7.01;18.03
64115;BME280;62188;35.640;139.748;2023-02-15T00:17:16;101821.22;;;7.40;17.87
64115;BME280;62188;35.640;139.748;2023-02-15T00:19:41;101845.28;;;7.09;17.50
64115;BME280;62188;35.640;139.748;2023-02-15T00:22:08;101837.32;;;6.69;17.42
64115;BME280;62188;35.640;139.748;2023-02-15T00:24:34;101843.86;;;6.84;17.32
64115;BME280;62188;35.640;139.748;2023-02-15T00:26:58;101840.46;;;7.03;17.49
64115;BME280;62188;35.640;139.748;2023-02-15T00:29:23;101839.00;;;7.19;17.54
64115;BME280;62188;35.640;139.748;2023-02-15T00:31:49;101841.72;;;7.37;17.34
64115;BME280;62188;35.640;139.748;2023-02-15T00:34:15;101855.63;;;7.53;17.52
64115;BME280;62188;35.640;139.748;2023-02-15T00:36:39;101853.15;;;7.72;17.10
64115;BME280;62188;35.640;139.748;2023-02-15T00:39:07;101852.84;;;7.68;17.18
64115;BME280;62188;35.640;139.748;2023-02-15T00:41:32;101862.78;;;7.51;16.80
64115;BME280;62188;35.640;139.748;2023-02-15T00:43:57;101866.16;;;7.51;17.44
64115;BME280;62188;35.640;139.748;2023-02-15T00:46:23;101865.52;;;7.81;17.49
64115;BME280;62188;35.640;139.748;2023-02-15T00:48:57;101865.85;;;7.88;17.11
64115;BME280;62188;35.640;139.748;2023-02-15T00:51:14;101863.47;;;7.85;16.93
64115;BME280;62188;35.640;139.748;2023-02-15T00:53:42;101850.91;;;7.87;16.62
64115;BME280;62188;35.640;139.748;2023-02-15T00:56:06;101863.78;;;7.73;16.83
64115;BME280;62188;35.640;139.748;2023-02-15T00:58:32;101844.28;;;7.60;16.82
64115;BME280;62188;35.640;139.748;2023-02-15T01:01:04;101865.75;;;7.74;16.92
64115;BME280;62188;35.640;139.748;2023-02-15T01:03:23;101861.32;;;7.55;16.99
64115;BME280;62188;35.640;139.748;2023-02-15T01:05:50;101865.54;;;7.65;16.74
64115;BME280;62188;35.640;139.748;2023-02-15T01:08:14;101860.56;;;7.64;16.57
64115;BME280;62188;35.640;139.748;2023-02-15T01:10:41;101868.55;;;7.37;16.55
64115;BME280;62188;35.640;139.748;2023-02-15T01:13:07;101862.96;;;7.68;16.60
64115;BME280;62188;35.640;139.748;2023-02-15T01:15:34;101862.54;;;8.11;16.72
64115;BME280;62188;35.640;139.748;2023-02-15T01:17:59;101849.60;;;7.97;16.44
64115;BME280;62188;35.640;139.748;2023-02-15T01:20:27;101850.20;;;8.16;16.17
64115;BME280;62188;35.640;139.748;2023-02-15T01:22:48;101839.52;;;7.76;16.18
64115;BME280;62188;35.640;139.748;2023-02-15T01:25:14;101846.21;;;8.06;16.27
64115;BME280;62188;35.640;139.748;2023-02-15T01:27:40;101854.42;;;7.89;16.33
64115;BME280;62188;35.640;139.748;2023-02-15T01:30:09;101845.05;;;8.31;16.17
64115;BME280;62188;35.640;139.748;2023-02-15T01:32:32;101844.95;;;7.88;15.98
64115;BME280;62188;35.640;139.748;2023-02-15T01:34:57;101849.56;;;8.34;15.74
64115;BME280;62188;35.640;139.748;2023-02-15T01:37:23;101845.76;;;8.40;15.59
64115;BME280;62188;35.640;139.748;2023-02-15T01:39:49;101849.81;;;8.27;16.09
64115;BME280;62188;35.640;139.748;2023-02-15T01:42:15;101842.84;;;8.70;15.24
64115;BME280;62188;35.640;139.748;2023-02-15T01:44:47;101862.69;;;8.28;15.47
64115;BME280;62188;35.640;139.748;2023-02-15T01:47:07;101854.74;;;8.59;15.40
64115;BME280;62188;35.640;139.748;2023-02-15T01:49:32;101840.08;;;8.51;15.95
64115;BME280;62188;35.640;139.748;2023-02-15T01:51:58;101852.67;;;8.61;16.03
64115;BME280;62188;35.640;139.748;2023-02-15T01:54:27;101842.34;;;8.82;15.90
64115;BME280;62188;35.640;139.748;2023-02-15T01:56:50;101841.02;;;9.03;15.40
64115;BME280;62188;35.640;139.748;2023-02-15T01:59:19;101834.54;;;9.20;15.53
64115;BME280;62188;35.640;139.748;2023-02-15T02:01:41;101834.64;;;9.43;15.57
64115;BME280;62188;35.640;139.748;2023-02-15T02:04:13;101813.22;;;8.97;14.96
64115;BME280;62188;35.640;139.748;2023-02-15T02:06:35;101811.05;;;8.52;14.91
64115;BME280;62188;35.640;139.748;2023-02-15T02:08:58;101823.14;;;8.18;15.06
64115;BME280;62188;35.640;139.748;2023-02-15T02:11:24;101832.76;;;8.12;15.32
64115;BME280;62188;35.640;139.748;2023-02-15T02:13:51;101825.83;;;8.32;15.55
64115;BME280;62188;35.640;139.748;2023-02-15T02:16:20;101817.04;;;8.65;16.00
64115;BME280;62188;35.640;139.748;2023-02-15T02:18:51;101807.36;;;8.67;15.43
64115;BME280;62188;35.640;139.748;2023-02-15T02:23:44;101815.56;;;8.81;15.66
64115;BME280;62188;35.640;139.748;2023-02-15T02:28:35;101800.68;;;8.91;15.07
64115;BME280;62188;35.640;139.748;2023-02-15T02:35:48;101787.51;;;9.51;14.70
64115;BME280;62188;35.640;139.748;2023-02-15T02:38:17;101777.71;;;9.63;14.54
64115;BME280;62188;35.640;139.748;2023-02-15T02:40:43;101784.73;;;9.88;14.43
64115;BME280;62188;35.640;139.748;2023-02-15T02:43:04;101791.45;;;10.73;14.46
64115;BME280;62188;35.640;139.748;2023-02-15T02:45:28;101797.21;;;11.00;14.86
64115;BME280;62188;35.640;139.748;2023-02-15T02:47:53;101785.57;;;11.48;14.74
64115;BME280;62188;35.640;139.748;2023-02-15T02:50:21;101788.41;;;11.15;14.06
64115;BME280;62188;35.640;139.748;2023-02-15T02:52:44;101788.09;;;10.82;14.20
64115;BME280;62188;35.640;139.748;2023-02-15T02:55:15;101776.06;;;10.78;14.45
64115;BME280;62188;35.640;139.748;2023-02-15T02:57:37;101779.79;;;11.55;14.40
64115;BME280;62188;35.640;139.748;2023-02-15T03:00:02;101769.56;;;11.91;14.31
64115;BME280;62188;35.640;139.748;2023-02-15T03:02:28;101780.69;;;11.91;14.36
64115;BME280;62188;35.640;139.748;2023-02-15T03:04:56;101767.44;;;11.84;14.34
64115;BME280;62188;35.640;139.748;2023-02-15T03:07:19;101771.13;;;11.79;14.54
64115;BME280;62188;35.640;139.748;2023-02-15T03:09:45;101755.06;;;11.59;14.12
64115;BME280;62188;35.640;139.748;2023-02-15T03:12:09;101763.97;;;11.89;13.96
64115;BME280;62188;35.640;139.748;2023-02-15T03:14:34;101767.54;;;12.41;13.79
64115;BME280;62188;35.640;139.748;2023-02-15T03:17:01;101755.58;;;12.30;13.40
64115;BME280;62188;35.640;139.748;2023-02-15T03:19:29;101753.68;;;12.67;13.30
64115;BME280;62188;35.640;139.748;2023-02-15T03:21:54;101746.76;;;12.48;13.31
64115;BME280;62188;35.640;139.748;2023-02-15T03:24:21;101752.20;;;12.48;13.54
64115;BME280;62188;35.640;139.748;2023-02-15T03:26:45;101753.54;;;12.52;13.66
64115;BME280;62188;35.640;139.748;2023-02-15T03:29:10;101747.61;;;12.24;13.67
64115;BME280;62188;35.640;139.748;2023-02-15T03:31:39;101747.51;;;12.26;13.84
64115;BME280;62188;35.640;139.748;2023-02-15T03:34:02;101741.56;;;12.02;13.88
64115;BME280;62188;35.640;139.748;2023-02-15T03:36:31;101741.18;;;12.07;14.23
64115;BME280;62188;35.640;139.748;2023-02-15T03:38:55;101747.03;;;12.38;14.02
64115;BME280;62188;35.640;139.748;2023-02-15T03:41:19;101734.05;;;12.17;13.99
64115;BME280;62188;35.640;139.748;2023-02-15T03:43:47;101736.65;;;12.20;14.24
64115;BME280;62188;35.640;139.748;2023-02-15T03:46:15;101734.05;;;12.72;14.49
64115;BME280;62188;35.640;139.748;2023-02-15T03:48:39;101729.75;;;13.18;14.69
64115;BME280;62188;35.640;139.748;2023-02-15T03:51:03;101730.97;;;13.71;14.35
64115;BME280;62188;35.640;139.748;2023-02-15T03:53:27;101723.30;;;13.62;13.70
64115;BME280;62188;35.640;139.748;2023-02-15T03:55:55;101718.21;;;13.87;13.62
64115;BME280;62188;35.640;139.748;2023-02-15T03:58:17;101722.41;;;13.90;13.25
64115;BME280;62188;35.640;139.748;2023-02-15T04:00:49;101725.17;;;13.77;13.53
64115;BME280;62188;35.640;139.748;2023-02-15T04:03:17;101711.20;;;13.73;13.19
64115;BME280;62188;35.640;139.748;2023-02-15T04:05:34;101711.50;;;13.86;12.89
64115;BME280;62188;35.640;139.748;2023-02-15T04:08:00;101715.96;;;14.15;12.96
64115;BME280;62188;35.640;139.748;2023-02-15T04:10:26;101702.77;;;14.43;12.86
64115;BME280;62188;35.640;139.748;2023-02-15T04:12:51;101709.49;;;14.48;12.85
64115;BME280;62188;35.640;139.748;2023-02-15T04:15:17;101710.96;;;14.40;13.11
64115;BME280;62188;35.640;139.748;2023-02-15T04:17:42;101696.95;;;14.92;13.04
64115;BME280;62188;35.640;139.748;2023-02-15T04:20:09;101696.43;;;15.02;12.54
64115;BME280;62188;35.640;139.748;2023-02-15T04:22:34;101686.91;;;14.95;12.30
64115;BME280;62188;35.640;139.748;2023-02-15T04:24:59;101690.64;;;15.24;12.31
64115;BME280;62188;35.640;139.748;2023-02-15T04:27:25;101687.61;;;15.00;12.34
64115;BME280;62188;35.640;139.748;2023-02-15T04:29:51;101686.85;;;15.33;12.24
64115;BME280;62188;35.640;139.748;2023-02-15T04:32:16;101683.47;;;15.21;11.94
64115;BME280;62188;35.640;139.748;2023-02-15T04:34:42;101668.23;;;14.74;11.87
64115;BME280;62188;35.640;139.748;2023-02-15T04:37:08;101666.48;;;14.63;11.97
64115;BME280;62188;35.640;139.748;2023-02-15T04:39:34;101685.81;;;14.91;12.06
64115;BME280;62188;35.640;139.748;2023-02-15T04:41:59;101680.47;;;14.69;11.90
64115;BME280;62188;35.640;139.748;2023-02-15T04:44:24;101685.30;;;15.05;12.04
64115;BME280;62188;35.640;139.748;2023-02-15T04:46:50;101674.43;;;14.73;11.82
64115;BME280;62188;35.640;139.748;2023-02-15T04:49:16;101685.79;;;14.59;11.85
64115;BME280;62188;35.640;139.748;2023-02-15T04:51:41;101682.19;;;13.98;11.83
64115;BME280;62188;35.640;139.748;2023-02-15T04:54:07;101681.28;;;13.63;12.12
64115;BME280;62188;35.640;139.748;2023-02-15T04:56:33;101684.32;;;13.55;12.23
64115;BME280;62188;35.640;139.748;2023-02-15T04:58:59;101696.83;;;12.85;12.64
64115;BME280;62188;35.640;139.748;2023-02-15T05:01:24;101691.26;;;12.33;12.97
64115;BME280;62188;35.640;139.748;2023-02-15T05:03:50;101694.89;;;12.44;13.18
64115;BME280;62188;35.640;139.748;2023-02-15T05:06:16;101692.26;;;12.32;13.17
64115;BME280;62188;35.640;139.748;2023-02-15T05:08:42;101686.69;;;12.15;13.16
64115;BME280;62188;35.640;139.748;2023-02-15T05:11:15;101698.37;;;12.22;13.20
64115;BME280;62188;35.640;139.748;2023-02-15T05:13:33;101701.15;;;12.09;13.64
64115;BME280;62188;35.640;139.748;2023-02-15T05:15:58;101699.84;;;12.23;13.83
64115;BME280;62188;35.640;139.748;2023-02-15T05:18:24;101708.31;;;12.17;14.46
64115;BME280;62188;35.640;139.748;2023-02-15T05:20:50;101706.42;;;11.90;14.41
64115;BME280;62188;35.640;139.748;2023-02-15T05:23:17;101714.31;;;11.87;14.67
64115;BME280;62188;35.640;139.748;2023-02-15T05:28:10;101717.50;;;11.79;14.48
64115;BME280;62188;35.640;139.748;2023-02-15T05:30:35;101722.04;;;11.95;14.58
64115;BME280;62188;35.640;139.748;2023-02-15T05:32:59;101721.92;;;11.67;14.46
64115;BME280;62188;35.640;139.748;2023-02-15T05:35:26;101720.03;;;11.40;14.59
64115;BME280;62188;35.640;139.748;2023-02-15T05:37:50;101717.50;;;11.66;14.36
64115;BME280;62188;35.640;139.748;2023-02-15T05:40:16;101721.71;;;11.44;14.52
64115;BME280;62188;35.640;139.748;2023-02-15T05:42:42;101713.91;;;11.35;14.63
64115;BME280;62188;35.640;139.748;2023-02-15T05:45:08;101736.64;;;10.96;14.38
64115;BME280;62188;35.640;139.748;2023-02-15T05:47:33;101719.23;;;10.85;14.53
64115;BME280;62188;35.640;139.748;2023-02-15T05:49:59;101723.83;;;10.68;14.60
64115;BME280;62188;35.640;139.748;2023-02-15T05:52:25;101725.58;;;10.56;14.89
64115;BME280;62188;35.640;139.748;2023-02-15T05:54:50;101732.21;;;10.65;15.10
64115;BME280;62188;35.640;139.748;2023-02-15T05:57:16;101721.60;;;10.53;14.89
64115;BME280;62188;35.640;139.748;2023-02-15T05:59:42;101743.18;;;10.34;15.01
64115;BME280;62188;35.640;139.748;2023-02-15T06:02:07;101747.90;;;10.27;15.01
64115;BME280;62188;35.640;139.748;2023-02-15T06:04:33;101735.10;;;10.09;14.99
64115;BME280;62188;35.640;139.748;2023-02-15T06:06:59;101742.71;;;10.66;14.94
64115;BME280;62188;35.640;139.748;2023-02-15T06:09:25;101749.74;;;10.61;14.94
64115;BME280;62188;35.640;139.748;2023-02-15T06:11:50;101760.20;;;10.45;15.15
64115;BME280;62188;35.640;139.748;2023-02-15T06:14:16;101750.46;;;10.48;14.85
64115;BME280;62188;35.640;139.748;2023-02-15T06:16:42;101760.64;;;10.77;14.98
64115;BME280;62188;35.640;139.748;2023-02-15T06:19:08;101755.77;;;10.78;14.72
64115;BME280;62188;35.640;139.748;2023-02-15T06:21:33;101766.13;;;10.30;14.81
64115;BME280;62188;35.640;139.748;2023-02-15T06:23:59;101760.56;;;10.30;14.72
64115;BME280;62188;35.640;139.748;2023-02-15T06:26:25;101751.42;;;9.92;14.84
64115;BME280;62188;35.640;139.748;2023-02-15T06:28:51;101777.25;;;10.02;15.11
64115;BME280;62188;35.640;139.748;2023-02-15T06:31:16;101767.26;;;10.12;15.07
64115;BME280;62188;35.640;139.748;2023-02-15T06:33:42;101776.49;;;10.05;15.12
64115;BME280;62188;35.640;139.748;2023-02-15T06:36:08;101782.20;;;10.16;15.34
64115;BME280;62188;35.640;139.748;2023-02-15T06:38:34;101792.33;;;10.15;15.29
64115;BME280;62188;35.640;139.748;2023-02-15T06:40:59;101793.66;;;10.06;15.69
64115;BME280;62188;35.640;139.748;2023-02-15T06:43:25;101796.01;;;10.22;15.53
64115;BME280;62188;35.640;139.748;2023-02-15T06:45:51;101795.76;;;9.89;15.82
64115;BME280;62188;35.640;139.748;2023-02-15T06:48:17;101792.42;;;9.88;15.71
64115;BME280;62188;35.640;139.748;2023-02-15T06:50:43;101808.17;;;9.67;15.60
64115;BME280;62188;35.640;139.748;2023-02-15T06:53:08;101798.61;;;9.74;15.69
64115;BME280;62188;35.640;139.748;2023-02-15T06:55:34;101805.94;;;9.86;16.18
64115;BME280;62188;35.640;139.748;2023-02-15T06:57:59;101801.56;;;9.89;15.62
64115;BME280;62188;35.640;139.748;2023-02-15T07:00:25;101804.93;;;10.08;15.36
64115;BME280;62188;35.640;139.748;2023-02-15T07:02:54;101801.27;;;9.66;15.39
64115;BME280;62188;35.640;139.748;2023-02-15T07:05:16;101811.51;;;9.70;15.47
64115;BME280;62188;35.640;139.748;2023-02-15T07:07:42;101816.86;;;9.93;15.71
64115;BME280;62188;35.640;139.748;2023-02-15T07:10:08;101818.20;;;9.90;15.65
64115;BME280;62188;35.640;139.748;2023-02-15T07:12:33;101821.79;;;10.05;15.62
64115;BME280;62188;35.640;139.748;2023-02-15T07:14:59;101815.41;;;10.09;15.49
64115;BME280;62188;35.640;139.748;2023-02-15T07:17:25;101812.78;;;10.20;15.99
64115;BME280;62188;35.640;139.748;2023-02-15T07:19:50;101821.17;;;9.86;15.64
64115;BME280;62188;35.640;139.748;2023-02-15T07:22:16;101842.92;;;9.81;15.85
64115;BME280;62188;35.640;139.748;2023-02-15T07:24:42;101838.61;;;9.91;15.61
64115;BME280;62188;35.640;139.748;2023-02-15T07:27:08;101843.98;;;9.89;15.78
64115;BME280;62188;35.640;139.748;2023-02-15T07:29:34;101854.79;;;9.90;15.58
64115;BME280;62188;35.640;139.748;2023-02-15T07:32:00;101868.90;;;9.61;15.62
64115;BME280;62188;35.640;139.748;2023-02-15T07:34:25;101869.79;;;9.92;15.92
64115;BME280;62188;35.640;139.748;2023-02-15T07:36:53;101870.64;;;9.65;16.34
64115;BME280;62188;35.640;139.748;2023-02-15T07:39:17;101882.99;;;9.45;15.85
64115;BME280;62188;35.640;139.748;2023-02-15T07:41:42;101881.57;;;9.64;16.03
64115;BME280;62188;35.640;139.748;2023-02-15T07:44:12;101877.02;;;8.93;16.37
64115;BME280;62188;35.640;139.748;2023-02-15T07:46:34;101891.74;;;9.30;16.41
64115;BME280;62188;35.640;139.748;2023-02-15T07:48:59;101890.95;;;9.42;16.32
64115;BME280;62188;35.640;139.748;2023-02-15T07:51:25;101896.32;;;9.63;16.26
64115;BME280;62188;35.640;139.748;2023-02-15T07:53:51;101894.02;;;9.49;16.47
64115;BME280;62188;35.640;139.748;2023-02-15T07:56:17;101907.52;;;9.22;16.16
64115;BME280;62188;35.640;139.748;2023-02-15T07:58:43;101910.20;;;9.50;15.97
64115;BME280;62188;35.640;139.748;2023-02-15T08:01:08;101916.11;;;9.58;16.11
64115;BME280;62188;35.640;139.748;2023-02-15T08:03:34;101921.84;;;9.63;16.52
64115;BME280;62188;35.640;139.748;2023-02-15T08:06:01;101921.98;;;9.51;16.25
64115;BME280;62188;35.640;139.748;2023-02-15T08:08:26;101913.55;;;9.56;16.06
64115;BME280;62188;35.640;139.748;2023-02-15T08:10:52;101931.16;;;9.08;16.30
64115;BME280;62188;35.640;139.748;2023-02-15T08:13:17;101933.53;;;9.48;16.41
64115;BME280;62188;35.640;139.748;2023-02-15T08:15:48;101930.63;;;9.62;16.65
64115;BME280;62188;35.640;139.748;2023-02-15T08:18:09;101937.15;;;9.54;16.82
64115;BME280;62188;35.640;139.748;2023-02-15T08:20:35;101947.10;;;9.48;16.49
64115;BME280;62188;35.640;139.748;2023-02-15T08:23:01;101950.43;;;9.22;16.42
64115;BME280;62188;35.640;139.748;2023-02-15T08:25:26;101953.96;;;9.40;16.40
64115;BME280;62188;35.640;139.748;2023-02-15T08:27:52;101952.33;;;9.38;16.06
64115;BME280;62188;35.640;139.748;2023-02-15T08:30:18;101961.04;;;9.21;16.06
64115;BME280;62188;35.640;139.748;2023-02-15T08:32:43;101969.27;;;9.22;15.97
64115;BME280;62188;35.640;139.748;2023-02-15T08:35:09;101972.74;;;9.36;16.58
64115;BME280;62188;35.640;139.748;2023-02-15T08:37:35;101980.92;;;9.31;16.70
64115;BME280;62188;35.640;139.748;2023-02-15T08:40:00;102002.12;;;9.32;16.69
64115;BME280;62188;35.640;139.748;2023-02-15T08:42:26;101993.75;;;8.92;16.41
64115;BME280;62188;35.640;139.748;2023-02-15T08:44:52;102001.90;;;8.64;16.40
64115;BME280;62188;35.640;139.748;2023-02-15T08:47:18;102000.60;;;8.79;16.53
64115;BME280;62188;35.640;139.748;2023-02-15T08:49:44;102008.30;;;8.87;16.70
64115;BME280;62188;35.640;139.748;2023-02-15T08:52:10;102008.90;;;8.97;16.60
64115;BME280;62188;35.640;139.748;2023-02-15T08:54:36;102022.75;;;8.69;16.52
64115;BME280;62188;35.640;139.748;2023-02-15T08:57:01;102025.95;;;8.62;16.72
64115;BME280;62188;35.640;139.748;2023-02-15T08:59:27;102028.94;;;8.78;16.65
64115;BME280;62188;35.640;139.748;2023-02-15T09:01:53;102037.53;;;8.80;16.93
64115;BME280;62188;35.640;139.748;2023-02-15T09:04:19;102042.19;;;8.77;17.12
64115;BME280;62188;35.640;139.748;2023-02-15T09:06:46;102053.10;;;8.74;16.86
64115;BME280;62188;35.640;139.748;2023-02-15T09:09:11;102056.79;;;8.59;16.69
64115;BME280;62188;35.640;139.748;2023-02-15T09:11:37;102052.42;;;8.57;16.78
64115;BME280;62188;35.640;139.748;2023-02-15T09:14:03;102058.88;;;8.58;16.70
64115;BME280;62188;35.640;139.748;2023-02-15T09:16:28;102063.72;;;8.40;17.00
64115;BME280;62188;35.640;139.748;2023-02-15T09:18:53;102072.52;;;8.47;17.30
64115;BME280;62188;35.640;139.748;2023-02-15T09:21:20;102066.61;;;8.57;17.58
64115;BME280;62188;35.640;139.748;2023-02-15T09:23:48;102066.49;;;8.54;17.19
64115;BME280;62188;35.640;139.748;2023-02-15T09:26:13;102070.37;;;8.55;17.42
64115;BME280;62188;35.640;139.748;2023-02-15T09:28:37;102072.20;;;8.67;17.25
64115;BME280;62188;35.640;139.748;2023-02-15T09:31:10;102076.00;;;8.57;17.23
64115;BME280;62188;35.640;139.748;2023-02-15T09:33:28;102087.08;;;8.50;17.25
64115;BME280;62188;35.640;139.748;2023-02-15T09:35:54;102088.69;;;8.43;17.00
64115;BME280;62188;35.640;139.748;2023-02-15T09:38:19;102101.11;;;8.37;17.06
64115;BME280;62188;35.640;139.748;2023-02-15T09:40:53;102103.58;;;7.97;17.03
64115;BME280;62188;35.640;139.748;2023-02-15T09:43:21;102104.28;;;7.92;16.94
64115;BME280;62188;35.640;139.748;2023-02-15T09:45:48;102115.06;;;8.38;17.19
64115;BME280;62188;35.640;139.748;2023-02-15T09:48:14;102123.54;;;8.43;17.20
64115;BME280;62188;35.640;139.748;2023-02-15T09:50:35;102123.62;;;8.87;17.30
64115;BME280;62188;35.640;139.748;2023-02-15T09:53:06;102133.89;;;8.36;16.95
64115;BME280;62188;35.640;139.748;2023-02-15T09:55:31;102132.17;;;8.09;16.87
64115;BME280;62188;35.640;139.748;2023-02-15T09:57:51;102120.47;;;8.13;17.19
64115;BME280;62188;35.640;139.748;2023-02-15T10:00:19;102135.26;;;8.06;16.97
64115;BME280;62188;35.640;139.748;2023-02-15T10:02:49;102144.52;;;8.58;16.98
64115;BME280;62188;35.640;139.748;2023-02-15T10:05:13;102139.04;;;8.14;16.98
64115;BME280;62188;35.640;139.748;2023-02-15T10:07:43;102146.86;;;8.22;16.94
64115;BME280;62188;35.640;139.748;2023-02-15T10:10:03;102144.07;;;7.48;16.96
64115;BME280;62188;35.640;139.748;2023-02-15T10:12:35;102148.46;;;7.91;17.06
64115;BME280;62188;35.640;139.748;2023-02-15T10:15:00;102141.24;;;7.72;17.10
64115;BME280;62188;35.640;139.748;2023-02-15T10:17:23;102156.22;;;7.86;17.04
64115;BME280;62188;35.640;139.748;2023-02-15T10:19:43;102158.25;;;8.16;16.98
64115;BME280;62188;35.640;139.748;2023-02-15T10:22:13;102148.98;;;7.69;16.91
64115;BME280;62188;35.640;139.748;2023-02-15T10:24:42;102152.31;;;7.82;17.07
64115;BME280;62188;35.640;139.748;2023-02-15T10:26:59;102167.03;;;7.54;17.18
64115;BME280;62188;35.640;139.748;2023-02-15T10:29:29;102177.00;;;7.66;17.29
64115;BME280;62188;35.640;139.748;2023-02-15T10:31:49;102185.18;;;7.99;17.22
64115;BME280;62188;35.640;139.748;2023-02-15T10:34:17;102182.30;;;8.22;17.55
64115;BME280;62188;35.640;139.748;2023-02-15T10:36:56;102194.13;;;8.04;17.24
64115;BME280;62188;35.640;139.748;2023-02-15T10:39:09;102203.31;;;8.14;17.20
64115;BME280;62188;35.640;139.748;2023-02-15T10:41:37;102204.75;;;7.91;17.91
64115;BME280;62188;35.640;139.748;2023-02-15T10:44:07;102209.84;;;8.54;17.69
64115;BME280;62188;35.640;139.748;2023-02-15T10:46:35;102213.84;;;8.44;17.93
64115;BME280;62188;35.640;139.748;2023-02-15T10:48:59;102218.29;;;8.82;17.87
64115;BME280;62188;35.640;139.748;2023-02-15T10:51:19;102220.97;;;8.40;17.59
64115;BME280;62188;35.640;139.748;2023-02-15T10:56:14;102225.12;;;8.61;17.50
64115;BME280;62188;35.640;139.748;2023-02-15T10:58:41;102225.34;;;8.56;17.35
64115;BME280;62188;35.640;139.748;2023-02-15T11:01:02;102231.44;;;8.61;19.51
64115;BME280;62188;35.640;139.748;2023-02-15T11:03:33;102236.55;;;8.84;19.29
64115;BME280;62188;35.640;139.748;2023-02-15T11:05:58;102246.53;;;8.88;20.43
64115;BME280;62188;35.640;139.748;2023-02-15T11:08:14;102250.89;;;9.01;20.74
64115;BME280;62188;35.640;139.748;2023-02-15T11:10:44;102243.54;;;9.08;18.52
64115;BME280;62188;35.640;139.748;2023-02-15T11:13:11;102254.04;;;8.81;18.16
64115;BME280;62188;35.640;139.748;2023-02-15T11:15:36;102255.11;;;8.99;17.74
64115;BME280;62188;35.640;139.748;2023-02-15T11:17:59;102250.03;;;9.09;17.87
64115;BME280;62188;35.640;139.748;2023-02-15T11:20:28;102253.06;;;8.93;17.88
64115;BME280;62188;35.640;139.748;2023-02-15T11:22:50;102257.20;;;8.97;17.89
64115;BME280;62188;35.640;139.748;2023-02-15T11:25:19;102255.84;;;9.26;17.31
64115;BME280;62188;35.640;139.748;2023-02-15T11:27:41;102262.89;;;9.28;17.79
64115;BME280;62188;35.640;139.748;2023-02-15T11:30:12;102263.86;;;9.12;17.43
64115;BME280;62188;35.640;139.748;2023-02-15T11:32:34;102267.28;;;9.36;17.79
64115;BME280;62188;35.640;139.748;2023-02-15T11:35:02;102265.72;;;9.19;18.26
64115;BME280;62188;35.640;139.748;2023-02-15T11:37:28;102267.44;;;9.10;17.26
64115;BME280;62188;35.640;139.748;2023-02-15T11:39:49;102259.71;;;9.33;17.48
64115;BME280;62188;35.640;139.748;2023-02-15T11:42:16;102260.51;;;9.17;18.01
64115;BME280;62188;35.640;139.748;2023-02-15T11:44:47;102262.19;;;9.16;17.86
64115;BME280;62188;35.640;139.748;2023-02-15T11:47:10;102269.77;;;9.01;17.93
64115;BME280;62188;35.640;139.748;2023-02-15T11:49:34;102267.99;;;8.81;17.43
64115;BME280;62188;35.640;139.748;2023-02-15T11:51:59;102269.39;;;8.62;17.22
64115;BME280;62188;35.640;139.748;2023-02-15T11:54:28;102279.57;;;8.43;17.76
64115;BME280;62188;35.640;139.748;2023-02-15T11:56:49;102281.22;;;8.22;17.57
64115;BME280;62188;35.640;139.748;2023-02-15T11:59:21;102293.79;;;8.03;17.59
64115;BME280;62188;35.640;139.748;2023-02-15T12:01:43;102307.56;;;7.70;17.91
64115;BME280;62188;35.640;139.748;2023-02-15T12:04:13;102304.91;;;7.91;18.05
64115;BME280;62188;35.640;139.748;2023-02-15T12:06:37;102313.98;;;7.39;18.42
64115;BME280;62188;35.640;139.748;2023-02-15T12:09:05;102317.57;;;7.74;18.49
64115;BME280;62188;35.640;139.748;2023-02-15T12:11:32;102323.61;;;8.15;18.31
64115;BME280;62188;35.640;139.748;2023-02-15T12:13:57;102330.54;;;7.97;18.27
64115;BME280;62188;35.640;139.748;2023-02-15T12:16:16;102327.45;;;7.81;18.52
64115;BME280;62188;35.640;139.748;2023-02-15T12:18:43;102326.72;;;8.01;19.14
64115;BME280;62188;35.640;139.748;2023-02-15T12:21:10;102332.58;;;8.48;19.49
64115;BME280;62188;35.640;139.748;2023-02-15T12:23:34;102323.09;;;8.25;18.46
64115;BME280;62188;35.640;139.748;2023-02-15T12:26:00;102324.85;;;7.71;18.70
64115;BME280;62188;35.640;139.748;2023-02-15T12:28:30;102331.25;;;7.76;19.38
64115;BME280;62188;35.640;139.748;2023-02-15T12:30:52;102330.28;;;7.82;18.76
64115;BME280;62188;35.640;139.748;2023-02-15T12:33:21;102335.47;;;8.04;18.70
64115;BME280;62188;35.640;139.748;2023-02-15T12:35:44;102341.95;;;8.13;19.68
64115;BME280;62188;35.640;139.748;2023-02-15T12:38:21;102351.19;;;7.95;19.30
64115;BME280;62188;35.640;139.748;2023-02-15T12:40:35;102349.97;;;8.09;18.79